sensor_id;sensor_type;location;lat;lon;timestamp;P1;durP1;ratioP1;P2;durP2;ratioP2
1977;SDS011;989;53.016;8.346;2023-09-19T00:00:23;8.00;;;3.10;;
1977;SDS011;989;53.016;8.346;2023-09-19T00:02:55;5.87;;;2.87;;
1977;SDS011;989;53.016;8.346;2023-09-19T00:05:22;13.90;;;3.63;;
1977;SDS011;989;53.016;8.346;2023-09-19T00:07:49;5.33;;;3.17;;
1977;SDS011;989;53.016;8.346;2023-09-19T00:10:19;7.00;;;3.20;;
1977;SDS011;989;53.016;8.346;2023-09-19T00:12:46;8.10;;;3.23;;
1977;SDS011;989;53.016;8.346;2023-09-19T00:15:13;5.07;;;2.97;;
1977;SDS011;989;53.016;8.346;2023-09-19T00:17:42;8.80;;;3.90;;
1977;SDS011;989;53.016;8.346;2023-09-19T00:20:08;5.40;;;2.90;;
1977;SDS011;989;53.016;8.346;2023-09-19T00:22:41;6.93;;;2.93;;
1977;SDS011;989;53.016;8.346;2023-09-19T00:25:10;9.80;;;3.23;;
1977;SDS011;989;53.016;8.346;2023-09-19T00:27:40;7.80;;;2.70;;
1977;SDS011;989;53.016;8.346;2023-09-19T00:30:10;9.20;;;3.17;;
1977;SDS011;989;53.016;8.346;2023-09-19T00:32:49;5.77;;;2.60;;
1977;SDS011;989;53.016;8.346;2023-09-19T00:35:22;10.03;;;3.30;;
1977;SDS011;989;53.016;8.346;2023-09-19T00:37:49;7.23;;;3.20;;
1977;SDS011;989;53.016;8.346;2023-09-19T00:40:15;6.60;;;2.50;;
1977;SDS011;989;53.016;8.346;2023-09-19T00:42:42;7.03;;;2.40;;
1977;SDS011;989;53.016;8.346;2023-09-19T00:45:09;9.77;;;2.97;;
1977;SDS011;989;53.016;8.346;2023-09-19T00:47:37;9.40;;;4.50;;
1977;SDS011;989;53.016;8.346;2023-09-19T00:50:24;10.00;;;3.00;;
1977;SDS011;989;53.016;8.346;2023-09-19T00:52:55;10.17;;;3.37;;
1977;SDS011;989;53.016;8.346;2023-09-19T00:55:21;9.07;;;4.00;;
1977;SDS011;989;53.016;8.346;2023-09-19T00:57:48;5.00;;;2.83;;
1977;SDS011;989;53.016;8.346;2023-09-19T01:00:15;6.67;;;2.80;;
1977;SDS011;989;53.016;8.346;2023-09-19T01:02:43;13.07;;;2.93;;
1977;SDS011;989;53.016;8.346;2023-09-19T01:05:10;7.43;;;2.90;;
1977;SDS011;989;53.016;8.346;2023-09-19T01:07:37;3.50;;;2.00;;
1977;SDS011;989;53.016;8.346;2023-09-19T01:10:05;5.00;;;1.80;;
1977;SDS011;989;53.016;8.346;2023-09-19T01:15:21;3.53;;;2.13;;
1977;SDS011;989;53.016;8.346;2023-09-19T01:23:11;5.73;;;1.60;;
1977;SDS011;989;53.016;8.346;2023-09-19T01:31:44;5.43;;;1.83;;
1977;SDS011;989;53.016;8.346;2023-09-19T01:34:10;3.90;;;2.00;;
1977;SDS011;989;53.016;8.346;2023-09-19T01:36:37;6.57;;;2.00;;
1977;SDS011;989;53.016;8.346;2023-09-19T01:39:10;3.63;;;2.10;;
1977;SDS011;989;53.016;8.346;2023-09-19T01:44:18;3.20;;;1.93;;
1977;SDS011;989;53.016;8.346;2023-09-19T01:46:58;3.23;;;1.70;;
1977;SDS011;989;53.016;8.346;2023-09-19T01:54:50;5.73;;;1.63;;
1977;SDS011;989;53.016;8.346;2023-09-19T02:00:04;3.80;;;1.97;;
1977;SDS011;989;53.016;8.346;2023-09-19T02:02:34;5.50;;;2.20;;
1977;SDS011;989;53.016;8.346;2023-09-19T02:05:04;2.60;;;1.47;;
1977;SDS011;989;53.016;8.346;2023-09-19T02:07:31;3.27;;;1.50;;
1977;SDS011;989;53.016;8.346;2023-09-19T02:09:57;6.73;;;1.63;;
1977;SDS011;989;53.016;8.346;2023-09-19T02:12:25;3.87;;;1.17;;
1977;SDS011;989;53.016;8.346;2023-09-19T02:14:51;7.13;;;1.90;;
1977;SDS011;989;53.016;8.346;2023-09-19T02:17:17;8.27;;;2.03;;
1977;SDS011;989;53.016;8.346;2023-09-19T02:19:44;5.57;;;1.93;;
1977;SDS011;989;53.016;8.346;2023-09-19T02:22:10;3.70;;;1.60;;
1977;SDS011;989;53.016;8.346;2023-09-19T02:24:37;10.67;;;2.30;;
1977;SDS011;989;53.016;8.346;2023-09-19T02:27:03;3.70;;;1.80;;
1977;SDS011;989;53.016;8.346;2023-09-19T02:29:30;7.73;;;1.90;;
1977;SDS011;989;53.016;8.346;2023-09-19T02:31:56;6.83;;;1.67;;
1977;SDS011;989;53.016;8.346;2023-09-19T02:34:22;2.87;;;1.60;;
1977;SDS011;989;53.016;8.346;2023-09-19T02:36:50;5.80;;;2.03;;
1977;SDS011;989;53.016;8.346;2023-09-19T02:39:18;7.53;;;2.00;;
1977;SDS011;989;53.016;8.346;2023-09-19T02:41:44;5.10;;;2.30;;
1977;SDS011;989;53.016;8.346;2023-09-19T02:44:11;6.30;;;2.03;;
1977;SDS011;989;53.016;8.346;2023-09-19T02:46:37;8.00;;;2.00;;
1977;SDS011;989;53.016;8.346;2023-09-19T02:49:03;4.30;;;1.60;;
1977;SDS011;989;53.016;8.346;2023-09-19T02:51:32;5.67;;;2.37;;
1977;SDS011;989;53.016;8.346;2023-09-19T02:53:59;11.97;;;2.40;;
1977;SDS011;989;53.016;8.346;2023-09-19T02:56:25;3.87;;;2.40;;
1977;SDS011;989;53.016;8.346;2023-09-19T02:58:51;3.13;;;1.90;;
1977;SDS011;989;53.016;8.346;2023-09-19T03:01:18;6.33;;;2.47;;
1977;SDS011;989;53.016;8.346;2023-09-19T03:03:44;6.13;;;2.40;;
1977;SDS011;989;53.016;8.346;2023-09-19T03:06:10;4.87;;;2.20;;
1977;SDS011;989;53.016;8.346;2023-09-19T03:08:38;7.10;;;2.87;;
1977;SDS011;989;53.016;8.346;2023-09-19T03:11:05;3.30;;;2.13;;
1977;SDS011;989;53.016;8.346;2023-09-19T03:13:32;5.73;;;2.30;;
1977;SDS011;989;53.016;8.346;2023-09-19T03:15:58;8.40;;;3.20;;
1977;SDS011;989;53.016;8.346;2023-09-19T03:18:24;3.10;;;2.03;;
1977;SDS011;989;53.016;8.346;2023-09-19T03:20:54;9.47;;;2.60;;
1977;SDS011;989;53.016;8.346;2023-09-19T03:23:20;10.73;;;2.70;;
1977;SDS011;989;53.016;8.346;2023-09-19T03:25:47;7.90;;;2.40;;
1977;SDS011;989;53.016;8.346;2023-09-19T03:28:13;2.73;;;2.00;;
1977;SDS011;989;53.016;8.346;2023-09-19T03:30:40;8.20;;;2.57;;
1977;SDS011;989;53.016;8.346;2023-09-19T03:33:07;10.83;;;2.47;;
1977;SDS011;989;53.016;8.346;2023-09-19T03:35:33;9.30;;;2.30;;
1977;SDS011;989;53.016;8.346;2023-09-19T03:37:59;9.10;;;2.70;;
1977;SDS011;989;53.016;8.346;2023-09-19T03:40:25;12.17;;;2.70;;
1977;SDS011;989;53.016;8.346;2023-09-19T03:42:51;17.30;;;3.07;;
1977;SDS011;989;53.016;8.346;2023-09-19T03:45:18;11.33;;;2.30;;
1977;SDS011;989;53.016;8.346;2023-09-19T03:47:44;11.40;;;3.47;;
1977;SDS011;989;53.016;8.346;2023-09-19T03:50:12;5.13;;;2.00;;
1977;SDS011;989;53.016;8.346;2023-09-19T03:52:43;6.60;;;2.10;;
1977;SDS011;989;53.016;8.346;2023-09-19T03:55:09;5.67;;;2.30;;
1977;SDS011;989;53.016;8.346;2023-09-19T03:57:36;10.33;;;2.60;;
1977;SDS011;989;53.016;8.346;2023-09-19T04:00:03;10.33;;;2.20;;
1977;SDS011;989;53.016;8.346;2023-09-19T04:02:37;4.20;;;2.00;;
1977;SDS011;989;53.016;8.346;2023-09-19T04:05:04;14.20;;;3.83;;
1977;SDS011;989;53.016;8.346;2023-09-19T04:07:30;11.33;;;2.10;;
1977;SDS011;989;53.016;8.346;2023-09-19T04:09:56;7.97;;;2.87;;
1977;SDS011;989;53.016;8.346;2023-09-19T04:12:22;10.03;;;2.93;;
1977;SDS011;989;53.016;8.346;2023-09-19T04:14:48;6.80;;;2.40;;
1977;SDS011;989;53.016;8.346;2023-09-19T04:17:15;11.87;;;2.93;;
1977;SDS011;989;53.016;8.346;2023-09-19T04:19:41;9.33;;;2.93;;
1977;SDS011;989;53.016;8.346;2023-09-19T04:22:07;13.67;;;2.10;;
1977;SDS011;989;53.016;8.346;2023-09-19T04:24:34;14.90;;;2.50;;
1977;SDS011;989;53.016;8.346;2023-09-19T04:27:00;5.53;;;3.00;;
1977;SDS011;989;53.016;8.346;2023-09-19T04:29:26;4.77;;;2.00;;
1977;SDS011;989;53.016;8.346;2023-09-19T04:31:54;9.73;;;2.57;;
1977;SDS011;989;53.016;8.346;2023-09-19T04:34:21;7.13;;;2.43;;
1977;SDS011;989;53.016;8.346;2023-09-19T04:36:48;8.47;;;2.30;;
1977;SDS011;989;53.016;8.346;2023-09-19T04:39:15;7.50;;;2.47;;
1977;SDS011;989;53.016;8.346;2023-09-19T04:41:41;11.90;;;2.70;;
1977;SDS011;989;53.016;8.346;2023-09-19T04:44:07;17.57;;;2.80;;
1977;SDS011;989;53.016;8.346;2023-09-19T04:46:34;14.60;;;3.60;;
1977;SDS011;989;53.016;8.346;2023-09-19T04:49:00;8.30;;;2.40;;
1977;SDS011;989;53.016;8.346;2023-09-19T04:51:27;10.27;;;3.00;;
1977;SDS011;989;53.016;8.346;2023-09-19T04:53:58;10.13;;;2.70;;
1977;SDS011;989;53.016;8.346;2023-09-19T04:56:24;10.50;;;3.70;;
1977;SDS011;989;53.016;8.346;2023-09-19T04:58:50;13.67;;;3.07;;
1977;SDS011;989;53.016;8.346;2023-09-19T05:01:16;12.03;;;3.10;;
1977;SDS011;989;53.016;8.346;2023-09-19T05:03:42;11.97;;;3.10;;
1977;SDS011;989;53.016;8.346;2023-09-19T05:06:10;6.60;;;2.53;;
1977;SDS011;989;53.016;8.346;2023-09-19T05:08:36;3.43;;;2.23;;
1977;SDS011;989;53.016;8.346;2023-09-19T05:11:02;17.80;;;3.27;;
1977;SDS011;989;53.016;8.346;2023-09-19T05:13:28;22.93;;;3.47;;
1977;SDS011;989;53.016;8.346;2023-09-19T05:15:55;9.90;;;3.00;;
1977;SDS011;989;53.016;8.346;2023-09-19T05:18:27;19.43;;;3.37;;
1977;SDS011;989;53.016;8.346;2023-09-19T05:20:53;12.47;;;3.37;;
1977;SDS011;989;53.016;8.346;2023-09-19T05:23:19;19.97;;;3.20;;
1977;SDS011;989;53.016;8.346;2023-09-19T05:25:45;16.90;;;3.47;;
1977;SDS011;989;53.016;8.346;2023-09-19T05:28:12;9.37;;;2.47;;
1977;SDS011;989;53.016;8.346;2023-09-19T05:30:40;8.80;;;2.87;;
1977;SDS011;989;53.016;8.346;2023-09-19T05:33:08;9.63;;;2.80;;
1977;SDS011;989;53.016;8.346;2023-09-19T05:35:34;11.83;;;3.67;;
1977;SDS011;989;53.016;8.346;2023-09-19T05:38:04;9.70;;;2.50;;
1977;SDS011;989;53.016;8.346;2023-09-19T05:40:34;8.23;;;2.57;;
1977;SDS011;989;53.016;8.346;2023-09-19T05:43:00;10.47;;;2.80;;
1977;SDS011;989;53.016;8.346;2023-09-19T05:45:28;11.23;;;3.60;;
1977;SDS011;989;53.016;8.346;2023-09-19T05:47:55;14.47;;;3.03;;
1977;SDS011;989;53.016;8.346;2023-09-19T05:50:29;9.03;;;2.83;;
1977;SDS011;989;53.016;8.346;2023-09-19T05:52:57;10.63;;;2.60;;
1977;SDS011;989;53.016;8.346;2023-09-19T05:55:23;11.70;;;2.40;;
1977;SDS011;989;53.016;8.346;2023-09-19T05:57:53;6.60;;;3.03;;
1977;SDS011;989;53.016;8.346;2023-09-19T06:00:19;12.13;;;2.80;;
1977;SDS011;989;53.016;8.346;2023-09-19T06:02:52;16.93;;;3.60;;
1977;SDS011;989;53.016;8.346;2023-09-19T06:05:19;10.37;;;3.50;;
1977;SDS011;989;53.016;8.346;2023-09-19T06:07:46;8.53;;;3.30;;
1977;SDS011;989;53.016;8.346;2023-09-19T06:10:12;10.20;;;2.40;;
1977;SDS011;989;53.016;8.346;2023-09-19T06:12:40;13.10;;;3.20;;
1977;SDS011;989;53.016;8.346;2023-09-19T06:15:09;11.40;;;3.10;;
1977;SDS011;989;53.016;8.346;2023-09-19T06:17:40;8.23;;;2.67;;
1977;SDS011;989;53.016;8.346;2023-09-19T06:20:16;10.80;;;2.83;;
1977;SDS011;989;53.016;8.346;2023-09-19T06:22:43;10.10;;;3.43;;
1977;SDS011;989;53.016;8.346;2023-09-19T06:25:10;7.90;;;3.20;;
1977;SDS011;989;53.016;8.346;2023-09-19T06:27:39;9.93;;;3.47;;
1977;SDS011;989;53.016;8.346;2023-09-19T06:30:09;19.53;;;3.90;;
1977;SDS011;989;53.016;8.346;2023-09-19T06:32:39;13.57;;;3.17;;
1977;SDS011;989;53.016;8.346;2023-09-19T06:35:09;14.10;;;4.10;;
1977;SDS011;989;53.016;8.346;2023-09-19T06:37:36;25.53;;;5.10;;
1977;SDS011;989;53.016;8.346;2023-09-19T06:42:39;14.43;;;3.93;;
1977;SDS011;989;53.016;8.346;2023-09-19T06:45:10;12.23;;;4.53;;
1977;SDS011;989;53.016;8.346;2023-09-19T06:47:43;13.73;;;4.17;;
1977;SDS011;989;53.016;8.346;2023-09-19T06:50:10;11.40;;;3.57;;
1977;SDS011;989;53.016;8.346;2023-09-19T06:52:43;14.80;;;3.80;;
1977;SDS011;989;53.016;8.346;2023-09-19T06:55:09;21.07;;;3.90;;
1977;SDS011;989;53.016;8.346;2023-09-19T06:57:36;12.63;;;4.10;;
1977;SDS011;989;53.016;8.346;2023-09-19T07:00:03;8.60;;;3.30;;
1977;SDS011;989;53.016;8.346;2023-09-19T07:02:34;13.50;;;4.57;;
1977;SDS011;989;53.016;8.346;2023-09-19T07:05:01;16.60;;;3.73;;
1977;SDS011;989;53.016;8.346;2023-09-19T07:07:27;19.23;;;3.60;;
1977;SDS011;989;53.016;8.346;2023-09-19T07:09:54;25.83;;;4.90;;
1977;SDS011;989;53.016;8.346;2023-09-19T07:12:21;17.63;;;4.37;;
1977;SDS011;989;53.016;8.346;2023-09-19T07:14:47;12.50;;;5.00;;
1977;SDS011;989;53.016;8.346;2023-09-19T07:17:14;12.57;;;6.60;;
1977;SDS011;989;53.016;8.346;2023-09-19T07:19:43;15.13;;;7.60;;
1977;SDS011;989;53.016;8.346;2023-09-19T07:22:10;22.13;;;8.33;;
1977;SDS011;989;53.016;8.346;2023-09-19T07:24:36;12.13;;;7.20;;
1977;SDS011;989;53.016;8.346;2023-09-19T07:27:03;20.00;;;9.40;;
1977;SDS011;989;53.016;8.346;2023-09-19T07:29:30;16.73;;;10.03;;
1977;SDS011;989;53.016;8.346;2023-09-19T07:31:56;15.67;;;9.73;;
1977;SDS011;989;53.016;8.346;2023-09-19T07:34:23;12.90;;;11.60;;
1977;SDS011;989;53.016;8.346;2023-09-19T07:36:49;14.93;;;11.67;;
1977;SDS011;989;53.016;8.346;2023-09-19T07:39:15;23.83;;;13.33;;
1977;SDS011;989;53.016;8.346;2023-09-19T07:41:41;15.30;;;11.63;;
1977;SDS011;989;53.016;8.346;2023-09-19T07:44:07;21.10;;;15.83;;
1977;SDS011;989;53.016;8.346;2023-09-19T07:46:35;17.97;;;16.37;;
1977;SDS011;989;53.016;8.346;2023-09-19T07:49:01;13.67;;;10.67;;
1977;SDS011;989;53.016;8.346;2023-09-19T07:51:27;17.23;;;11.43;;
1977;SDS011;989;53.016;8.346;2023-09-19T07:53:54;11.50;;;10.50;;
1977;SDS011;989;53.016;8.346;2023-09-19T07:56:20;17.80;;;9.90;;
1977;SDS011;989;53.016;8.346;2023-09-19T07:58:47;11.73;;;7.47;;
1977;SDS011;989;53.016;8.346;2023-09-19T08:01:13;14.13;;;8.87;;
1977;SDS011;989;53.016;8.346;2023-09-19T08:03:41;19.63;;;8.20;;
1977;SDS011;989;53.016;8.346;2023-09-19T08:06:08;15.93;;;9.73;;
1977;SDS011;989;53.016;8.346;2023-09-19T08:08:34;19.20;;;9.80;;
1977;SDS011;989;53.016;8.346;2023-09-19T08:11:04;13.63;;;9.70;;
1977;SDS011;989;53.016;8.346;2023-09-19T08:13:41;19.90;;;8.70;;
1977;SDS011;989;53.016;8.346;2023-09-19T08:16:10;14.43;;;7.80;;
1977;SDS011;989;53.016;8.346;2023-09-19T08:18:37;12.87;;;7.40;;
1977;SDS011;989;53.016;8.346;2023-09-19T08:21:06;8.20;;;6.77;;
1977;SDS011;989;53.016;8.346;2023-09-19T08:23:39;11.17;;;6.60;;
1977;SDS011;989;53.016;8.346;2023-09-19T08:26:05;12.80;;;6.90;;
1977;SDS011;989;53.016;8.346;2023-09-19T08:28:33;11.13;;;8.03;;
1977;SDS011;989;53.016;8.346;2023-09-19T08:31:03;16.27;;;6.20;;
1977;SDS011;989;53.016;8.346;2023-09-19T08:33:31;22.23;;;6.87;;
1977;SDS011;989;53.016;8.346;2023-09-19T08:36:01;8.40;;;5.60;;
1977;SDS011;989;53.016;8.346;2023-09-19T08:38:30;24.60;;;6.53;;
1977;SDS011;989;53.016;8.346;2023-09-19T08:41:00;12.00;;;5.10;;
1977;SDS011;989;53.016;8.346;2023-09-19T08:43:30;25.63;;;6.63;;
1977;SDS011;989;53.016;8.346;2023-09-19T08:48:34;10.97;;;4.73;;
1977;SDS011;989;53.016;8.346;2023-09-19T08:51:10;9.47;;;5.57;;
1977;SDS011;989;53.016;8.346;2023-09-19T08:56:34;10.30;;;5.90;;
1977;SDS011;989;53.016;8.346;2023-09-19T08:59:04;15.17;;;5.33;;
1977;SDS011;989;53.016;8.346;2023-09-19T09:01:36;12.90;;;5.90;;
1977;SDS011;989;53.016;8.346;2023-09-19T09:04:02;11.07;;;5.30;;
1977;SDS011;989;53.016;8.346;2023-09-19T09:06:29;11.43;;;4.70;;
1977;SDS011;989;53.016;8.346;2023-09-19T09:08:57;7.43;;;4.97;;
1977;SDS011;989;53.016;8.346;2023-09-19T09:11:23;11.17;;;5.53;;
1977;SDS011;989;53.016;8.346;2023-09-19T09:13:50;7.67;;;5.10;;
1977;SDS011;989;53.016;8.346;2023-09-19T09:16:16;11.00;;;5.90;;
1977;SDS011;989;53.016;8.346;2023-09-19T09:18:45;9.97;;;6.20;;
1977;SDS011;989;53.016;8.346;2023-09-19T09:21:12;17.13;;;6.70;;
1977;SDS011;989;53.016;8.346;2023-09-19T09:23:39;11.33;;;5.60;;
1977;SDS011;989;53.016;8.346;2023-09-19T09:26:05;12.47;;;6.20;;
1977;SDS011;989;53.016;8.346;2023-09-19T09:28:33;10.63;;;5.17;;
1977;SDS011;989;53.016;8.346;2023-09-19T09:31:00;13.83;;;5.03;;
1977;SDS011;989;53.016;8.346;2023-09-19T09:33:28;13.40;;;6.63;;
1977;SDS011;989;53.016;8.346;2023-09-19T09:35:57;11.73;;;6.20;;
1977;SDS011;989;53.016;8.346;2023-09-19T09:38:29;10.30;;;5.67;;
1977;SDS011;989;53.016;8.346;2023-09-19T09:41:08;11.37;;;6.33;;
1977;SDS011;989;53.016;8.346;2023-09-19T09:48:46;16.33;;;6.27;;
1977;SDS011;989;53.016;8.346;2023-09-19T09:51:36;20.67;;;6.73;;
1977;SDS011;989;53.016;8.346;2023-09-19T09:54:13;19.77;;;6.50;;
1977;SDS011;989;53.016;8.346;2023-09-19T09:56:54;12.40;;;5.03;;
1977;SDS011;989;53.016;8.346;2023-09-19T10:02:18;6.10;;;4.53;;
1977;SDS011;989;53.016;8.346;2023-09-19T10:04:58;15.93;;;5.27;;
1977;SDS011;989;53.016;8.346;2023-09-19T10:07:34;9.77;;;5.67;;
1977;SDS011;989;53.016;8.346;2023-09-19T10:10:03;14.13;;;5.13;;
1977;SDS011;989;53.016;8.346;2023-09-19T10:12:48;11.10;;;6.00;;
1977;SDS011;989;53.016;8.346;2023-09-19T10:15:16;11.80;;;6.17;;
1977;SDS011;989;53.016;8.346;2023-09-19T10:17:45;15.70;;;6.57;;
1977;SDS011;989;53.016;8.346;2023-09-19T10:20:13;12.10;;;6.70;;
1977;SDS011;989;53.016;8.346;2023-09-19T10:23:01;17.10;;;6.60;;
1977;SDS011;989;53.016;8.346;2023-09-19T10:25:40;12.10;;;6.70;;
1977;SDS011;989;53.016;8.346;2023-09-19T10:28:10;12.93;;;6.70;;
1977;SDS011;989;53.016;8.346;2023-09-19T10:30:40;11.13;;;6.30;;
1977;SDS011;989;53.016;8.346;2023-09-19T10:33:10;22.37;;;7.83;;
1977;SDS011;989;53.016;8.346;2023-09-19T10:35:46;19.83;;;8.53;;
1977;SDS011;989;53.016;8.346;2023-09-19T10:38:15;17.07;;;6.70;;
1977;SDS011;989;53.016;8.346;2023-09-19T10:40:53;11.43;;;7.83;;
1977;SDS011;989;53.016;8.346;2023-09-19T10:43:20;11.60;;;9.10;;
1977;SDS011;989;53.016;8.346;2023-09-19T10:45:51;12.17;;;8.00;;
1977;SDS011;989;53.016;8.346;2023-09-19T10:48:19;11.50;;;7.90;;
1977;SDS011;989;53.016;8.346;2023-09-19T10:50:49;12.10;;;6.60;;
1977;SDS011;989;53.016;8.346;2023-09-19T10:54:08;13.60;;;7.07;;
1977;SDS011;989;53.016;8.346;2023-09-19T10:56:30;14.17;;;7.50;;
1977;SDS011;989;53.016;8.346;2023-09-19T10:59:11;12.23;;;7.80;;
1977;SDS011;989;53.016;8.346;2023-09-19T11:01:50;21.87;;;9.60;;
1977;SDS011;989;53.016;8.346;2023-09-19T11:04:27;12.30;;;7.37;;
1977;SDS011;989;53.016;8.346;2023-09-19T11:09:48;13.90;;;9.53;;
1977;SDS011;989;53.016;8.346;2023-09-19T11:26:48;10.17;;;7.37;;
1977;SDS011;989;53.016;8.346;2023-09-19T11:29:24;11.53;;;9.53;;
1977;SDS011;989;53.016;8.346;2023-09-19T11:31:51;12.40;;;8.40;;
1977;SDS011;989;53.016;8.346;2023-09-19T11:37:02;15.30;;;9.53;;
1977;SDS011;989;53.016;8.346;2023-09-19T11:39:29;14.40;;;9.63;;
1977;SDS011;989;53.016;8.346;2023-09-19T11:41:55;10.07;;;6.90;;
1977;SDS011;989;53.016;8.346;2023-09-19T11:44:32;13.70;;;8.70;;
1977;SDS011;989;53.016;8.346;2023-09-19T11:46:59;13.50;;;8.67;;
1977;SDS011;989;53.016;8.346;2023-09-19T11:49:29;9.80;;;7.40;;
1977;SDS011;989;53.016;8.346;2023-09-19T11:51:57;13.47;;;8.13;;
1977;SDS011;989;53.016;8.346;2023-09-19T11:54:31;12.77;;;9.40;;
1977;SDS011;989;53.016;8.346;2023-09-19T11:56:57;9.53;;;6.73;;
1977;SDS011;989;53.016;8.346;2023-09-19T11:59:25;12.40;;;8.20;;
1977;SDS011;989;53.016;8.346;2023-09-19T12:01:54;12.07;;;7.80;;
1977;SDS011;989;53.016;8.346;2023-09-19T12:04:36;14.73;;;12.77;;
1977;SDS011;989;53.016;8.346;2023-09-19T12:07:05;11.27;;;9.20;;
1977;SDS011;989;53.016;8.346;2023-09-19T12:09:50;9.37;;;8.30;;
1977;SDS011;989;53.016;8.346;2023-09-19T12:12:29;19.60;;;10.10;;
1977;SDS011;989;53.016;8.346;2023-09-19T12:14:56;8.07;;;7.27;;
1977;SDS011;989;53.016;8.346;2023-09-19T12:17:24;12.87;;;8.90;;
1977;SDS011;989;53.016;8.346;2023-09-19T12:20:02;10.60;;;9.43;;
1977;SDS011;989;53.016;8.346;2023-09-19T12:22:42;10.63;;;9.70;;
1977;SDS011;989;53.016;8.346;2023-09-19T12:25:09;13.30;;;9.90;;
1977;SDS011;989;53.016;8.346;2023-09-19T12:27:43;13.50;;;10.53;;
1977;SDS011;989;53.016;8.346;2023-09-19T12:30:14;13.03;;;7.67;;
1977;SDS011;989;53.016;8.346;2023-09-19T12:32:42;17.27;;;12.10;;
1977;SDS011;989;53.016;8.346;2023-09-19T12:35:09;11.13;;;9.40;;
1977;SDS011;989;53.016;8.346;2023-09-19T12:37:43;20.23;;;9.70;;
1977;SDS011;989;53.016;8.346;2023-09-19T12:40:17;16.00;;;11.90;;
1977;SDS011;989;53.016;8.346;2023-09-19T12:42:47;11.53;;;10.40;;
1977;SDS011;989;53.016;8.346;2023-09-19T12:45:14;14.17;;;10.13;;
1977;SDS011;989;53.016;8.346;2023-09-19T12:51:05;11.53;;;10.20;;
1977;SDS011;989;53.016;8.346;2023-09-19T12:53:36;13.80;;;10.23;;
1977;SDS011;989;53.016;8.346;2023-09-19T12:56:15;11.23;;;8.90;;
1977;SDS011;989;53.016;8.346;2023-09-19T12:58:52;14.73;;;11.03;;
1977;SDS011;989;53.016;8.346;2023-09-19T13:01:19;14.50;;;12.60;;
1977;SDS011;989;53.016;8.346;2023-09-19T13:03:45;13.30;;;12.13;;
1977;SDS011;989;53.016;8.346;2023-09-19T13:06:11;19.40;;;12.23;;
1977;SDS011;989;53.016;8.346;2023-09-19T13:08:39;14.90;;;13.40;;
1977;SDS011;989;53.016;8.346;2023-09-19T13:11:14;13.47;;;11.40;;
1977;SDS011;989;53.016;8.346;2023-09-19T13:13:44;15.30;;;10.70;;
1977;SDS011;989;53.016;8.346;2023-09-19T13:16:13;14.73;;;11.50;;
1977;SDS011;989;53.016;8.346;2023-09-19T13:18:45;14.73;;;13.33;;
1977;SDS011;989;53.016;8.346;2023-09-19T13:21:16;14.47;;;12.70;;
1977;SDS011;989;53.016;8.346;2023-09-19T13:23:52;18.97;;;12.20;;
1977;SDS011;989;53.016;8.346;2023-09-19T13:26:24;15.60;;;11.90;;
1977;SDS011;989;53.016;8.346;2023-09-19T13:28:50;14.03;;;12.03;;
1977;SDS011;989;53.016;8.346;2023-09-19T13:31:17;12.67;;;11.17;;
1977;SDS011;989;53.016;8.346;2023-09-19T13:33:47;11.40;;;10.50;;
1977;SDS011;989;53.016;8.346;2023-09-19T13:36:14;10.63;;;9.77;;
1977;SDS011;989;53.016;8.346;2023-09-19T13:38:40;18.13;;;11.27;;
1977;SDS011;989;53.016;8.346;2023-09-19T13:41:09;11.27;;;10.17;;
1977;SDS011;989;53.016;8.346;2023-09-19T13:43:39;20.50;;;11.50;;
1977;SDS011;989;53.016;8.346;2023-09-19T13:46:05;11.17;;;10.03;;
1977;SDS011;989;53.016;8.346;2023-09-19T13:48:40;18.60;;;12.10;;
1977;SDS011;989;53.016;8.346;2023-09-19T13:51:06;17.70;;;11.17;;
1977;SDS011;989;53.016;8.346;2023-09-19T13:53:32;16.90;;;10.20;;
1977;SDS011;989;53.016;8.346;2023-09-19T13:55:59;11.47;;;10.37;;
1977;SDS011;989;53.016;8.346;2023-09-19T13:58:25;13.37;;;9.83;;
1977;SDS011;989;53.016;8.346;2023-09-19T14:00:52;11.13;;;10.00;;
1977;SDS011;989;53.016;8.346;2023-09-19T14:03:20;11.60;;;10.40;;
1977;SDS011;989;53.016;8.346;2023-09-19T14:05:46;13.23;;;9.60;;
1977;SDS011;989;53.016;8.346;2023-09-19T14:08:14;12.80;;;10.43;;
1977;SDS011;989;53.016;8.346;2023-09-19T14:10:40;13.80;;;9.67;;
1977;SDS011;989;53.016;8.346;2023-09-19T14:13:06;11.23;;;9.10;;
1977;SDS011;989;53.016;8.346;2023-09-19T14:15:32;15.37;;;9.90;;
1977;SDS011;989;53.016;8.346;2023-09-19T14:17:59;9.97;;;7.70;;
1977;SDS011;989;53.016;8.346;2023-09-19T14:20:26;11.30;;;8.27;;
1977;SDS011;989;53.016;8.346;2023-09-19T14:22:55;12.93;;;7.53;;
1977;SDS011;989;53.016;8.346;2023-09-19T14:25:23;9.40;;;8.33;;
1977;SDS011;989;53.016;8.346;2023-09-19T14:27:50;9.30;;;7.27;;
1977;SDS011;989;53.016;8.346;2023-09-19T14:30:16;15.40;;;8.40;;
1977;SDS011;989;53.016;8.346;2023-09-19T14:32:43;14.63;;;8.20;;
1977;SDS011;989;53.016;8.346;2023-09-19T14:35:09;8.63;;;7.83;;
1977;SDS011;989;53.016;8.346;2023-09-19T14:37:36;14.33;;;8.20;;
1977;SDS011;989;53.016;8.346;2023-09-19T14:40:03;14.60;;;8.73;;
1977;SDS011;989;53.016;8.346;2023-09-19T14:42:33;20.37;;;8.97;;
1977;SDS011;989;53.016;8.346;2023-09-19T14:45:02;11.23;;;8.60;;
1977;SDS011;989;53.016;8.346;2023-09-19T14:47:29;10.90;;;8.90;;
1977;SDS011;989;53.016;8.346;2023-09-19T14:49:57;14.00;;;12.60;;
1977;SDS011;989;53.016;8.346;2023-09-19T14:52:23;19.87;;;12.73;;
1977;SDS011;989;53.016;8.346;2023-09-19T14:54:52;12.00;;;7.07;;
1977;SDS011;989;53.016;8.346;2023-09-19T14:57:18;15.63;;;11.90;;
1977;SDS011;989;53.016;8.346;2023-09-19T14:59:45;12.33;;;5.90;;
1977;SDS011;989;53.016;8.346;2023-09-19T15:02:11;9.13;;;5.47;;
1977;SDS011;989;53.016;8.346;2023-09-19T15:04:38;12.47;;;10.33;;
1977;SDS011;989;53.016;8.346;2023-09-19T15:07:05;10.17;;;5.67;;
1977;SDS011;989;53.016;8.346;2023-09-19T15:09:31;8.20;;;5.93;;
1977;SDS011;989;53.016;8.346;2023-09-19T15:11:58;17.07;;;7.13;;
1977;SDS011;989;53.016;8.346;2023-09-19T15:14:25;11.50;;;7.50;;
1977;SDS011;989;53.016;8.346;2023-09-19T15:16:51;13.03;;;5.73;;
1977;SDS011;989;53.016;8.346;2023-09-19T15:19:17;18.67;;;10.60;;
1977;SDS011;989;53.016;8.346;2023-09-19T15:21:44;9.07;;;2.13;;
1977;SDS011;989;53.016;8.346;2023-09-19T15:24:10;6.50;;;5.57;;
1977;SDS011;989;53.016;8.346;2023-09-19T15:26:36;10.00;;;5.40;;
1977;SDS011;989;53.016;8.346;2023-09-19T15:29:05;9.20;;;5.40;;
1977;SDS011;989;53.016;8.346;2023-09-19T15:31:32;8.43;;;5.77;;
1977;SDS011;989;53.016;8.346;2023-09-19T15:33:58;15.60;;;7.00;;
1977;SDS011;989;53.016;8.346;2023-09-19T15:36:25;9.27;;;6.20;;
1977;SDS011;989;53.016;8.346;2023-09-19T15:38:58;9.93;;;5.20;;
1977;SDS011;989;53.016;8.346;2023-09-19T15:41:30;9.50;;;7.30;;
1977;SDS011;989;53.016;8.346;2023-09-19T15:43:57;10.30;;;5.37;;
1977;SDS011;989;53.016;8.346;2023-09-19T15:46:26;8.90;;;5.87;;
1977;SDS011;989;53.016;8.346;2023-09-19T15:48:54;17.40;;;5.97;;
1977;SDS011;989;53.016;8.346;2023-09-19T15:51:21;6.83;;;5.40;;
1977;SDS011;989;53.016;8.346;2023-09-19T15:53:51;21.23;;;6.00;;
1977;SDS011;989;53.016;8.346;2023-09-19T15:56:19;8.60;;;6.00;;
1977;SDS011;989;53.016;8.346;2023-09-19T15:58:49;16.60;;;7.47;;
1977;SDS011;989;53.016;8.346;2023-09-19T16:01:16;8.30;;;4.97;;
1977;SDS011;989;53.016;8.346;2023-09-19T16:03:44;16.13;;;5.90;;
1977;SDS011;989;53.016;8.346;2023-09-19T16:06:15;12.70;;;5.97;;
1977;SDS011;989;53.016;8.346;2023-09-19T16:08:45;7.70;;;5.00;;
1977;SDS011;989;53.016;8.346;2023-09-19T16:11:13;13.53;;;6.27;;
1977;SDS011;989;53.016;8.346;2023-09-19T16:13:40;6.50;;;5.33;;
1977;SDS011;989;53.016;8.346;2023-09-19T16:16:08;10.13;;;5.30;;
1977;SDS011;989;53.016;8.346;2023-09-19T16:18:59;9.77;;;6.57;;
1977;SDS011;989;53.016;8.346;2023-09-19T16:21:27;10.10;;;4.73;;
1977;SDS011;989;53.016;8.346;2023-09-19T16:23:55;9.70;;;5.73;;
1977;SDS011;989;53.016;8.346;2023-09-19T16:26:23;19.70;;;5.90;;
1977;SDS011;989;53.016;8.346;2023-09-19T16:28:49;10.10;;;5.60;;
1977;SDS011;989;53.016;8.346;2023-09-19T16:31:17;6.43;;;4.97;;
1977;SDS011;989;53.016;8.346;2023-09-19T16:33:44;6.83;;;4.70;;